Time;durP1;ratioP1;P1;durP2;ratioP2;P2;SDS_P1;SDS_P2;PMS_P1;PMS_P2;Temp;Humidity;BMP_temperature;BMP_pressure;BME280_temperature;BME280_humidity;BME280_pressure;Samples;Min_cycle;Max_cycle;Signal;HPM_P1;HPM_P2
2020/12/24 00:03:20;;;;;;;0.35;0.08;;;9.40;99.90;;;;;;10447391;28;20067;-54
2020/12/24 00:08:41;;;;;;;0.75;0.20;;;9.30;99.90;;;;;;10442520;28;20045;-54
2020/12/24 00:14:02;;;;;;;1.25;0.30;;;9.20;99.90;;;;;;10433654;28;20040;-54
2020/12/24 00:19:23;;;;;;;0.63;0.20;;;9.20;99.90;;;;;;10440825;28;20779;-54
2020/12/24 00:24:44;;;;;;;2.03;0.25;;;9.10;99.90;;;;;;10443844;28;20049;-54
2020/12/24 00:30:05;;;;;;;1.92;0.40;;;9.10;99.90;;;;;;10445644;28;20582;-54
2020/12/24 00:35:26;;;;;;;3.58;0.75;;;9.20;99.90;;;;;;10443822;28;20057;-54
2020/12/24 00:40:47;;;;;;;2.92;0.50;;;9.20;99.90;;;;;;10436690;28;20045;-54
2020/12/24 00:46:08;;;;;;;1.50;0.30;;;9.30;99.90;;;;;;10442366;28;20063;-54
2020/12/24 00:51:29;;;;;;;5.55;0.57;;;9.20;99.90;;;;;;10440721;28;20731;-54
2020/12/24 00:56:49;;;;;;;1.17;0.50;;;9.20;99.90;;;;;;10434230;28;20037;-54
2020/12/24 01:02:10;;;;;;;0.45;0.10;;;9.10;99.90;;;;;;10438772;28;20033;-54
2020/12/24 01:07:32;;;;;;;2.50;0.30;;;9.30;99.90;;;;;;10419627;28;20524;-54
2020/12/24 01:12:53;;;;;;;1.20;0.50;;;9.20;99.90;;;;;;10438274;28;20089;-54
2020/12/24 01:18:14;;;;;;;2.65;0.20;;;9.10;99.90;;;;;;10434913;28;20079;-54
2020/12/24 01:23:35;;;;;;;1.55;0.25;;;9.20;99.90;;;;;;10441785;28;20151;-54
2020/12/24 01:28:56;;;;;;;0.63;0.20;;;9.20;99.90;;;;;;10441645;28;20038;-54
2020/12/24 01:34:20;;;;;;;0.55;0.10;;;9.10;99.90;;;;;;10442186;28;20045;-54
2020/12/24 01:39:40;;;;;;;2.92;0.93;;;9.10;99.90;;;;;;10437618;28;20070;-54
2020/12/24 01:45:02;;;;;;;0.93;0.13;;;9.00;99.90;;;;;;10426479;28;20405;-54
2020/12/24 01:50:23;;;;;;;2.28;0.20;;;9.00;99.90;;;;;;10443060;28;20055;-54
2020/12/24 01:55:45;;;;;;;0.45;0.13;;;9.00;99.90;;;;;;10435809;28;20044;-53
2020/12/24 02:01:06;;;;;;;1.60;0.20;;;8.90;99.90;;;;;;10442508;28;20083;-53
2020/12/24 02:06:27;;;;;;;2.15;0.47;;;8.80;99.90;;;;;;10441778;28;20079;-54
2020/12/24 02:11:48;;;;;;;0.47;0.10;;;8.80;99.90;;;;;;10424578;28;20047;-53
2020/12/24 02:17:09;;;;;;;0.40;0.10;;;8.80;99.90;;;;;;10442744;28;20033;-54
2020/12/24 02:22:30;;;;;;;1.48;0.65;;;8.70;99.90;;;;;;10448930;28;20483;-54
2020/12/24 02:27:51;;;;;;;6.05;0.80;;;8.70;99.90;;;;;;10448828;28;20472;-53
2020/12/24 02:33:12;;;;;;;3.10;0.35;;;8.70;99.90;;;;;;10443100;28;20037;-53
2020/12/24 02:38:33;;;;;;;1.70;0.40;;;8.80;99.90;;;;;;10440765;28;20048;-53
2020/12/24 02:43:54;;;;;;;2.05;0.82;;;8.70;99.90;;;;;;10448031;28;20033;-54
2020/12/24 02:49:15;;;;;;;0.25;0.10;;;8.80;99.90;;;;;;10442283;28;20508;-53
2020/12/24 02:54:36;;;;;;;2.22;0.30;;;8.70;99.90;;;;;;10447851;28;20530;-53
2020/12/24 02:59:57;;;;;;;0.55;0.10;;;8.70;99.90;;;;;;10446912;28;20049;-53
2020/12/24 03:05:18;;;;;;;1.38;0.15;;;8.80;99.90;;;;;;10451598;28;20162;-53
2020/12/24 03:10:39;;;;;;;8.13;0.70;;;8.80;99.90;;;;;;10452252;28;20060;-53
2020/12/24 03:16:00;;;;;;;1.05;0.50;;;8.80;99.90;;;;;;10447390;28;20036;-53
2020/12/24 03:21:23;;;;;;;1.20;0.73;;;8.50;99.90;;;;;;10443215;28;20051;-53
2020/12/24 03:26:44;;;;;;;3.10;0.40;;;8.10;99.90;;;;;;10449304;28;20041;-53
2020/12/24 03:32:05;;;;;;;0.93;0.10;;;7.80;99.90;;;;;;10445131;28;20044;-54
2020/12/24 03:37:26;;;;;;;1.10;0.32;;;7.60;99.90;;;;;;10440694;28;20095;-54
2020/12/24 03:42:47;;;;;;;0.08;0.00;;;7.40;99.90;;;;;;10445814;28;20044;-54
2020/12/24 03:48:08;;;;;;;0.85;0.25;;;7.20;99.90;;;;;;10451987;28;20560;-53
2020/12/24 03:53:29;;;;;;;1.40;0.20;;;7.10;99.90;;;;;;10447051;28;20078;-54
2020/12/24 03:58:50;;;;;;;0.47;0.10;;;7.00;99.90;;;;;;10444764;28;20048;-54
2020/12/24 04:04:11;;;;;;;0.15;0.00;;;6.90;99.90;;;;;;10441613;28;20143;-53
2020/12/24 04:09:32;;;;;;;0.35;0.10;;;6.70;99.90;;;;;;10443245;28;20087;-54
2020/12/24 04:14:53;;;;;;;0.05;0.00;;;6.60;99.90;;;;;;10446097;28;20041;-53
2020/12/24 04:20:15;;;;;;;0.00;0.00;;;6.40;99.90;;;;;;10445958;28;20057;-54
2020/12/24 04:25:36;;;;;;;0.08;0.00;;;6.30;99.90;;;;;;10446257;28;20055;-54
2020/12/24 04:30:57;;;;;;;0.00;0.00;;;6.10;99.90;;;;;;10436487;28;20073;-53
2020/12/24 04:36:18;;;;;;;0.52;0.05;;;6.00;99.90;;;;;;10433257;28;20045;-53
2020/12/24 04:41:39;;;;;;;0.10;0.00;;;5.80;99.90;;;;;;10443437;28;20324;-53
2020/12/24 04:47:01;;;;;;;0.00;0.00;;;5.70;99.90;;;;;;10436155;28;20028;-53
2020/12/24 04:52:22;;;;;;;0.00;0.00;;;5.50;99.90;;;;;;10432444;28;20509;-53
2020/12/24 04:57:44;;;;;;;0.00;0.00;;;5.60;99.90;;;;;;10435899;28;20045;-54
2020/12/24 05:03:10;;;;;;;0.10;0.08;;;5.50;99.90;;;;;;10433966;28;20044;-53
2020/12/24 05:08:31;;;;;;;0.30;0.30;;;5.40;99.90;;;;;;10434597;28;20460;-53
2020/12/24 05:13:53;;;;;;;0.90;0.10;;;5.40;99.90;;;;;;10437428;28;20480;-52
2020/12/24 05:19:14;;;;;;;0.30;0.00;;;5.20;99.90;;;;;;10428299;28;20037;-52
2020/12/24 05:24:35;;;;;;;0.20;0.08;;;5.10;99.90;;;;;;10436478;28;20056;-52
2020/12/24 05:29:56;;;;;;;2.10;0.00;;;5.30;99.90;;;;;;10438111;28;20887;-52
2020/12/24 05:35:22;;;;;;;0.10;0.00;;;5.20;99.90;;;;;;10438962;28;20385;-53
2020/12/24 05:40:43;;;;;;;0.22;0.00;;;5.20;99.90;;;;;;10435390;28;20095;-53
2020/12/24 05:46:04;;;;;;;0.00;0.00;;;5.20;99.90;;;;;;10439601;28;20036;-52
2020/12/24 05:51:25;;;;;;;0.20;0.10;;;5.20;99.90;;;;;;10443178;28;20561;-53
2020/12/24 05:56:47;;;;;;;0.08;0.08;;;5.20;99.90;;;;;;10450985;28;20110;-52
2020/12/24 06:02:17;;;;;;;2.55;0.20;;;5.30;99.90;;;;;;10452146;28;20776;-53
2020/12/24 06:08:12;;;;;;;0.20;0.00;;;5.30;99.90;;;;;;10446269;28;20036;-53
2020/12/24 06:13:39;;;;;;;0.00;0.00;;;5.20;99.90;;;;;;10443331;28;20170;-52
2020/12/24 06:19:00;;;;;;;0.00;0.00;;;5.20;99.90;;;;;;10445042;28;20776;-53
2020/12/24 06:24:22;;;;;;;0.22;0.10;;;5.20;99.90;;;;;;10450516;28;20041;-53
2020/12/24 06:29:47;;;;;;;0.20;0.05;;;5.20;99.90;;;;;;10444088;28;20131;-53
2020/12/24 06:35:08;;;;;;;0.00;0.00;;;5.20;99.90;;;;;;10442242;28;20073;-53
2020/12/24 06:40:32;;;;;;;0.05;0.00;;;5.20;99.90;;;;;;10400484;28;20060;-53
2020/12/24 06:45:56;;;;;;;0.00;0.00;;;5.20;99.90;;;;;;10403340;28;20033;-53
2020/12/24 06:51:17;;;;;;;0.32;0.08;;;5.20;99.90;;;;;;10400547;28;20046;-53
2020/12/24 06:56:38;;;;;;;0.30;0.00;;;5.10;99.90;;;;;;10396807;28;20409;-53
2020/12/24 07:02:01;;;;;;;0.00;0.00;;;5.10;99.90;;;;;;10397152;28;20064;-53
2020/12/24 07:07:42;;;;;;;0.00;0.00;;;5.20;99.90;;;;;;10395609;28;20037;-53
2020/12/24 07:13:03;;;;;;;0.17;0.05;;;5.20;99.90;;;;;;10400773;28;20118;-54
2020/12/24 07:18:24;;;;;;;0.00;0.00;;;5.20;99.90;;;;;;10399162;28;20520;-53
2020/12/24 07:23:46;;;;;;;0.47;0.00;;;5.20;99.90;;;;;;10400606;28;20041;-53
2020/12/24 07:29:08;;;;;;;0.20;0.00;;;5.20;99.90;;;;;;10396701;28;20781;-53
2020/12/24 07:34:36;;;;;;;0.65;0.20;;;5.30;99.90;;;;;;10399026;28;20049;-54
2020/12/24 07:39:57;;;;;;;0.38;0.03;;;5.30;99.90;;;;;;10415558;28;20056;-54
2020/12/24 07:45:23;;;;;;;0.52;0.20;;;5.30;99.90;;;;;;10440350;28;20056;-54
2020/12/24 07:50:47;;;;;;;0.80;0.40;;;5.40;99.90;;;;;;10438724;28;20098;-54
2020/12/24 07:56:09;;;;;;;1.08;0.32;;;5.30;99.90;;;;;;10442358;28;20137;-54
2020/12/24 08:01:31;;;;;;;0.60;0.30;;;5.30;99.90;;;;;;10442952;28;20044;-55
2020/12/24 08:06:52;;;;;;;0.65;0.32;;;5.30;99.90;;;;;;10437442;28;20036;-54
2020/12/24 08:12:21;;;;;;;0.88;0.45;;;5.30;99.90;;;;;;10436239;28;20095;-53
2020/12/24 08:17:49;;;;;;;0.30;0.20;;;5.30;99.90;;;;;;10439827;28;20494;-53
2020/12/24 08:23:18;;;;;;;0.68;0.15;;;5.40;99.90;;;;;;10440554;28;20036;-53
2020/12/24 08:28:51;;;;;;;1.00;0.10;;;5.40;99.90;;;;;;10443484;28;20041;-53
2020/12/24 08:34:12;;;;;;;0.38;0.20;;;5.50;99.90;;;;;;10438752;28;20035;-53
2020/12/24 08:39:33;;;;;;;0.75;0.75;;;5.50;99.90;;;;;;10438808;28;20619;-53
2020/12/24 08:44:56;;;;;;;1.20;0.30;;;5.50;99.90;;;;;;10441813;28;20265;-53
2020/12/24 08:50:30;;;;;;;0.90;0.20;;;5.40;99.90;;;;;;10437992;28;20090;-53
2020/12/24 08:55:51;;;;;;;0.28;0.10;;;5.50;99.90;;;;;;10441222;28;20128;-53
2020/12/24 09:01:12;;;;;;;0.30;0.13;;;5.50;99.90;;;;;;10431764;28;20118;-53
2020/12/24 09:06:33;;;;;;;2.95;0.30;;;5.60;99.90;;;;;;10438969;28;20504;-53
2020/12/24 09:11:54;;;;;;;0.40;0.20;;;5.60;99.90;;;;;;10430528;28;20037;-53
2020/12/24 09:17:15;;;;;;;0.45;0.30;;;5.60;99.90;;;;;;10435595;28;20416;-53
2020/12/24 09:22:36;;;;;;;0.20;0.20;;;5.60;99.90;;;;;;10435691;28;20029;-53
2020/12/24 09:27:58;;;;;;;0.85;0.20;;;5.70;99.90;;;;;;10436677;28;20137;-54
2020/12/24 09:33:19;;;;;;;0.98;0.25;;;5.80;99.90;;;;;;10442538;28;20433;-53
2020/12/24 09:38:40;;;;;;;1.80;0.60;;;5.80;99.90;;;;;;10436092;28;20124;-53
2020/12/24 09:44:01;;;;;;;0.63;0.30;;;5.90;99.90;;;;;;10447040;28;20672;-52
2020/12/24 09:49:22;;;;;;;1.77;0.43;;;5.90;99.90;;;;;;10428701;28;20158;-53
2020/12/24 09:54:43;;;;;;;0.60;0.32;;;5.90;99.90;;;;;;10439354;28;20033;-53
2020/12/24 10:00:06;;;;;;;0.10;0.10;;;6.10;99.90;;;;;;10430245;28;20045;-53
2020/12/24 10:05:27;;;;;;;0.38;0.10;;;6.10;99.90;;;;;;10436202;28;20487;-53
2020/12/24 10:10:48;;;;;;;0.28;0.03;;;6.20;99.90;;;;;;10444332;28;20538;-52
2020/12/24 10:16:09;;;;;;;1.42;0.28;;;6.20;99.90;;;;;;10433166;28;20473;-53
2020/12/24 10:21:30;;;;;;;0.73;0.10;;;6.20;99.90;;;;;;10443482;28;20082;-53
2020/12/24 10:26:55;;;;;;;7.43;0.90;;;6.30;99.90;;;;;;10442667;28;21135;-53
2020/12/24 10:32:16;;;;;;;1.15;0.43;;;6.30;99.90;;;;;;10442495;28;20120;-53
2020/12/24 10:37:37;;;;;;;0.32;0.22;;;6.30;99.90;;;;;;10437449;28;20083;-52
2020/12/24 10:43:01;;;;;;;1.65;0.20;;;6.40;99.90;;;;;;10424471;28;20086;-53
2020/12/24 10:48:22;;;;;;;5.68;1.83;;;6.50;99.90;;;;;;10451769;28;20120;-52
2020/12/24 10:53:45;;;;;;;6.55;0.63;;;6.50;99.90;;;;;;10446429;28;20120;-53
2020/12/24 10:59:06;;;;;;;0.30;0.08;;;6.50;99.90;;;;;;10454001;28;20041;-52
2020/12/24 11:04:26;;;;;;;0.08;0.03;;;6.50;99.90;;;;;;10445350;28;20049;-52
2020/12/24 11:09:47;;;;;;;0.40;0.20;;;6.60;99.90;;;;;;10445289;28;20045;-53
2020/12/24 11:15:08;;;;;;;5.85;0.25;;;6.60;99.90;;;;;;10447925;28;20661;-53
2020/12/24 11:20:29;;;;;;;0.10;0.00;;;6.70;99.90;;;;;;10445996;28;20194;-52
2020/12/24 11:25:50;;;;;;;0.73;0.30;;;6.70;99.90;;;;;;10442738;28;20140;-52
2020/12/24 11:31:12;;;;;;;2.67;0.30;;;6.90;99.90;;;;;;10430427;28;20033;-52
2020/12/24 11:36:33;;;;;;;0.77;0.20;;;7.00;99.90;;;;;;10440490;28;20049;-52
2020/12/24 11:41:54;;;;;;;1.35;0.00;;;7.00;99.90;;;;;;10433551;28;21008;-52
2020/12/24 11:47:15;;;;;;;0.47;0.32;;;6.90;99.90;;;;;;10437653;28;20498;-52
2020/12/24 11:52:37;;;;;;;3.83;0.10;;;6.90;99.90;;;;;;10429367;28;20357;-52
2020/12/24 11:57:59;;;;;;;0.73;0.03;;;6.90;99.90;;;;;;10447136;28;20071;-53
2020/12/24 12:03:20;;;;;;;1.90;0.20;;;7.00;99.90;;;;;;10447100;28;20043;-51
2020/12/24 12:08:41;;;;;;;0.00;0.00;;;7.00;99.90;;;;;;10444764;28;20048;-51
2020/12/24 12:14:02;;;;;;;0.65;0.17;;;7.10;99.90;;;;;;10436708;28;20047;-52
2020/12/24 12:19:23;;;;;;;1.67;0.65;;;7.10;99.90;;;;;;10442729;28;20504;-52
2020/12/24 12:24:44;;;;;;;0.73;0.13;;;7.10;99.90;;;;;;10446820;28;20045;-52
2020/12/24 12:30:06;;;;;;;2.95;0.20;;;7.10;99.90;;;;;;10448385;28;20578;-52
2020/12/24 12:35:27;;;;;;;0.30;0.10;;;7.00;99.90;;;;;;10471492;28;20040;-52
2020/12/24 12:40:48;;;;;;;0.68;0.10;;;6.90;99.90;;;;;;10450359;28;20063;-52
2020/12/24 12:46:09;;;;;;;0.17;0.10;;;6.90;99.90;;;;;;10453658;28;20090;-52
2020/12/24 12:51:31;;;;;;;1.45;0.38;;;7.40;99.90;;;;;;10454714;28;20078;-52
2020/12/24 12:56:51;;;;;;;0.43;0.05;;;8.70;99.90;;;;;;10458515;28;20128;-52
2020/12/24 13:02:12;;;;;;;0.45;0.17;;;10.20;99.90;;;;;;10480856;28;20041;-52
2020/12/24 13:07:33;;;;;;;0.98;0.30;;;11.60;99.90;;;;;;10461530;28;20037;-52
2020/12/24 13:12:54;;;;;;;0.55;0.10;;;12.30;99.90;;;;;;10473212;28;20037;-52
2020/12/24 13:18:15;;;;;;;0.77;0.50;;;12.30;99.90;;;;;;10481687;28;20044;-55
2020/12/24 13:23:36;;;;;;;0.20;0.10;;;11.10;99.90;;;;;;10480948;28;20068;-53
2020/12/24 13:28:57;;;;;;;1.30;0.30;;;9.80;99.90;;;;;;10479867;28;20047;-52
2020/12/24 13:34:18;;;;;;;0.50;0.08;;;9.10;99.90;;;;;;10481037;28;20094;-52
2020/12/24 13:39:39;;;;;;;1.58;0.10;;;8.00;99.90;;;;;;10435735;28;20419;-52
2020/12/24 13:45:05;;;;;;;5.45;1.13;;;7.10;99.90;;;;;;10442784;28;20274;-52
2020/12/24 13:50:26;;;;;;;1.10;0.30;;;6.50;99.90;;;;;;10459631;28;20028;-52
2020/12/24 13:55:47;;;;;;;3.95;0.20;;;6.20;99.90;;;;;;10451143;28;20123;-52
2020/12/24 14:01:13;;;;;;;3.92;0.25;;;6.10;99.90;;;;;;10462839;28;20450;-52
2020/12/24 14:06:33;;;;;;;0.45;0.22;;;6.00;99.90;;;;;;10480369;28;20163;-52
2020/12/24 14:11:54;;;;;;;3.33;0.98;;;6.00;99.90;;;;;;10455709;28;20020;-52
2020/12/24 14:17:15;;;;;;;0.17;0.10;;;6.00;99.90;;;;;;10463122;28;20091;-52
2020/12/24 14:22:36;;;;;;;1.38;1.27;;;6.00;99.90;;;;;;10463020;28;20020;-52
2020/12/24 14:27:57;;;;;;;2.25;0.10;;;6.00;99.90;;;;;;10488724;28;20031;-52
2020/12/24 14:33:18;;;;;;;1.00;0.30;;;6.00;99.90;;;;;;10486183;28;20162;-52
2020/12/24 14:38:39;;;;;;;2.15;0.20;;;5.90;99.90;;;;;;10453139;28;20044;-52
2020/12/24 14:44:00;;;;;;;0.00;0.00;;;5.90;99.90;;;;;;10441591;28;20123;-52
2020/12/24 14:49:21;;;;;;;0.10;0.00;;;5.90;99.90;;;;;;10476225;28;20477;-52
2020/12/24 14:54:42;;;;;;;2.38;0.10;;;5.90;99.90;;;;;;10483289;28;20081;-52
2020/12/24 15:00:05;;;;;;;1.75;0.20;;;5.90;99.90;;;;;;10482296;28;20102;-51
2020/12/24 15:05:26;;;;;;;0.95;0.20;;;5.90;99.90;;;;;;10468330;28;20086;-52
2020/12/24 15:10:47;;;;;;;0.32;0.10;;;5.90;99.90;;;;;;10471127;28;20449;-52
2020/12/24 15:16:08;;;;;;;0.40;0.10;;;5.90;99.90;;;;;;10481155;28;20063;-52
2020/12/24 15:21:29;;;;;;;0.13;0.00;;;5.80;99.90;;;;;;10480377;28;20483;-52
2020/12/24 15:26:50;;;;;;;0.65;0.20;;;5.80;99.90;;;;;;10479892;28;20037;-52
2020/12/24 15:32:11;;;;;;;0.28;0.15;;;5.90;99.90;;;;;;10481242;28;20036;-52
2020/12/24 15:37:32;;;;;;;1.10;0.20;;;5.90;99.90;;;;;;10481362;28;20041;-51
2020/12/24 15:42:54;;;;;;;0.32;0.00;;;5.70;99.90;;;;;;10454642;28;20048;-52
2020/12/24 15:48:15;;;;;;;3.78;0.70;;;5.70;99.90;;;;;;10476364;28;20485;-52
2020/12/24 15:53:38;;;;;;;2.83;0.30;;;5.50;99.90;;;;;;10427794;28;20040;-52
2020/12/24 15:58:59;;;;;;;0.00;0.00;;;5.50;99.90;;;;;;10478295;28;20641;-52
2020/12/24 16:04:21;;;;;;;2.33;0.17;;;5.40;99.90;;;;;;10479179;28;20033;-52
2020/12/24 16:09:43;;;;;;;2.00;0.50;;;5.40;99.90;;;;;;10483707;28;20349;-52
2020/12/24 16:15:05;;;;;;;5.13;0.85;;;5.40;99.90;;;;;;10484828;28;20548;-52
2020/12/24 16:20:26;;;;;;;1.10;0.20;;;5.40;99.90;;;;;;10474771;28;20040;-53
2020/12/24 16:25:47;;;;;;;0.80;0.20;;;5.30;99.90;;;;;;10485539;28;20490;-52
2020/12/24 16:31:08;;;;;;;12.38;0.80;;;5.30;99.90;;;;;;10468734;28;20037;-52
2020/12/24 16:36:29;;;;;;;3.50;0.47;;;5.30;99.90;;;;;;10482160;28;20124;-52
2020/12/24 16:41:57;;;;;;;3.75;0.40;;;5.30;99.90;;;;;;10483317;28;20040;-52
2020/12/24 16:47:18;;;;;;;0.45;0.35;;;5.20;99.90;;;;;;10453030;28;20037;-52
2020/12/24 16:52:40;;;;;;;0.82;0.30;;;5.20;99.90;;;;;;10470011;28;20043;-52
2020/12/24 16:58:01;;;;;;;0.77;0.30;;;5.20;99.90;;;;;;10474621;28;20508;-52
2020/12/24 17:03:21;;;;;;;1.70;0.70;;;5.30;99.90;;;;;;10479603;28;20485;-52
2020/12/24 17:08:42;;;;;;;3.83;1.33;;;5.20;99.90;;;;;;10483186;28;20062;-52
2020/12/24 17:14:03;;;;;;;1.85;0.40;;;5.20;99.90;;;;;;10482654;28;20499;-52
2020/12/24 17:19:24;;;;;;;6.80;0.65;;;5.20;99.90;;;;;;10482908;28;20041;-52
2020/12/24 17:24:45;;;;;;;1.17;0.50;;;5.20;99.90;;;;;;10455745;28;20041;-52
2020/12/24 17:30:07;;;;;;;1.92;0.57;;;5.30;99.90;;;;;;10481918;28;20037;-52
2020/12/24 17:35:28;;;;;;;11.50;1.00;;;5.40;99.90;;;;;;10459086;28;20119;-52
2020/12/24 17:40:49;;;;;;;1.38;0.73;;;5.40;99.90;;;;;;10467936;28;20077;-52
2020/12/24 17:46:11;;;;;;;0.60;0.38;;;5.40;99.90;;;;;;10473150;28;20033;-54
2020/12/24 17:51:32;;;;;;;1.67;0.90;;;5.40;99.90;;;;;;10474517;28;20028;-52
2020/12/24 17:56:53;;;;;;;10.38;1.00;;;5.40;99.90;;;;;;10480068;28;20499;-55
2020/12/24 18:02:14;;;;;;;6.78;0.47;;;5.40;99.90;;;;;;10490237;28;20126;-52
2020/12/24 18:07:34;;;;;;;11.00;0.65;;;5.50;99.90;;;;;;10491027;28;20169;-52
2020/12/24 18:12:55;;;;;;;3.20;0.80;;;5.50;99.90;;;;;;10488701;28;20032;-52
2020/12/24 18:18:16;;;;;;;1.13;0.70;;;5.50;99.90;;;;;;10487863;28;20043;-52
2020/12/24 18:23:40;;;;;;;1.02;0.30;;;5.50;99.90;;;;;;10481362;28;20040;-52
2020/12/24 18:29:01;;;;;;;1.02;0.38;;;5.50;99.90;;;;;;10473648;28;20091;-52
2020/12/24 18:34:22;;;;;;;1.85;0.70;;;5.50;99.90;;;;;;10487094;28;20032;-52
2020/12/24 18:39:43;;;;;;;9.10;0.30;;;5.50;99.90;;;;;;10482400;28;20045;-52
2020/12/24 18:45:04;;;;;;;0.60;0.38;;;5.40;99.90;;;;;;10487377;28;20345;-52
2020/12/24 18:50:25;;;;;;;1.25;0.30;;;5.40;99.90;;;;;;10460762;28;20024;-52
2020/12/24 18:55:46;;;;;;;0.82;0.10;;;5.50;99.90;;;;;;10482815;28;20033;-52
2020/12/24 19:01:11;;;;;;;0.85;0.68;;;5.50;99.90;;;;;;10458906;28;20400;-52
2020/12/24 19:06:32;;;;;;;2.03;0.43;;;5.60;99.90;;;;;;10454921;28;20178;-52
2020/12/24 19:11:53;;;;;;;0.60;0.30;;;5.50;99.90;;;;;;10486044;28;20036;-52
2020/12/24 19:17:14;;;;;;;1.05;0.40;;;5.50;99.90;;;;;;10485617;28;20068;-52
2020/12/24 19:22:36;;;;;;;1.30;0.30;;;5.40;99.90;;;;;;10486074;28;20036;-52
2020/12/24 19:27:56;;;;;;;0.30;0.10;;;5.30;99.90;;;;;;10469538;28;20123;-52
2020/12/24 19:33:17;;;;;;;5.15;0.20;;;5.20;99.90;;;;;;10462105;28;20036;-52
2020/12/24 19:38:39;;;;;;;1.27;0.30;;;5.10;99.90;;;;;;10479371;28;20044;-51
2020/12/24 19:44:00;;;;;;;4.13;0.57;;;5.20;99.90;;;;;;10481662;28;20032;-52
2020/12/24 19:49:21;;;;;;;0.85;0.20;;;5.10;99.90;;;;;;10475491;28;20036;-52
2020/12/24 19:54:42;;;;;;;0.45;0.10;;;5.10;99.90;;;;;;10485749;28;20055;-52
2020/12/24 20:00:04;;;;;;;6.43;0.57;;;5.10;99.90;;;;;;10474739;28;20059;-52
2020/12/24 20:05:25;;;;;;;0.30;0.00;;;5.00;99.90;;;;;;10477553;28;20044;-52
2020/12/24 20:10:47;;;;;;;0.20;0.10;;;5.00;99.90;;;;;;10480025;28;20392;-52
2020/12/24 20:16:09;;;;;;;0.10;0.00;;;5.00;99.90;;;;;;10480918;28;20337;-52
2020/12/24 20:21:31;;;;;;;5.95;0.20;;;5.00;99.90;;;;;;10479674;28;20036;-51
2020/12/24 20:26:52;;;;;;;3.10;0.77;;;5.10;99.90;;;;;;10479447;28;20500;-51
2020/12/24 20:32:13;;;;;;;2.33;0.57;;;5.20;99.90;;;;;;10478619;28;20044;-52
2020/12/24 20:37:34;;;;;;;2.70;1.15;;;5.20;99.90;;;;;;10443274;28;20056;-52
2020/12/24 20:42:55;;;;;;;3.95;0.20;;;5.20;99.90;;;;;;10459714;28;20036;-52
2020/12/24 20:48:16;;;;;;;2.35;0.40;;;5.10;99.90;;;;;;10469028;28;20148;-52
2020/12/24 20:53:37;;;;;;;2.10;0.30;;;5.00;99.90;;;;;;10443282;28;20137;-52
2020/12/24 20:59:02;;;;;;;0.10;0.10;;;5.10;99.90;;;;;;10472107;28;20036;-52
2020/12/24 21:04:23;;;;;;;0.43;0.32;;;5.00;99.90;;;;;;10470786;28;20044;-52
2020/12/24 21:09:44;;;;;;;3.45;0.98;;;5.00;99.90;;;;;;10483348;28;20033;-51
2020/12/24 21:15:06;;;;;;;0.05;0.05;;;5.00;99.90;;;;;;10473861;28;20044;-52
2020/12/24 21:20:27;;;;;;;0.45;0.10;;;5.00;99.90;;;;;;10479211;28;20469;-52
2020/12/24 21:25:48;;;;;;;0.40;0.10;;;5.00;99.90;;;;;;10482904;28;20062;-52
2020/12/24 21:31:09;;;;;;;0.03;0.00;;;5.10;99.90;;;;;;10482337;28;20028;-52
2020/12/24 21:36:30;;;;;;;0.05;0.00;;;5.00;99.90;;;;;;10470875;28;20718;-52
2020/12/24 21:41:51;;;;;;;0.20;0.10;;;5.10;99.90;;;;;;10441454;28;20064;-51
2020/12/24 21:47:12;;;;;;;1.25;0.43;;;5.10;99.90;;;;;;10451406;28;20477;-52
2020/12/24 21:52:33;;;;;;;0.73;0.25;;;5.00;99.90;;;;;;10465541;28;20128;-52
2020/12/24 21:57:54;;;;;;;6.22;0.20;;;5.00;99.90;;;;;;10453707;28;20034;-51
2020/12/24 22:03:15;;;;;;;0.20;0.10;;;4.90;99.90;;;;;;10470002;28;20028;-52
2020/12/24 22:08:36;;;;;;;0.20;0.00;;;4.90;99.90;;;;;;10482991;28;20016;-52
2020/12/24 22:13:58;;;;;;;0.13;0.00;;;4.90;99.90;;;;;;10475555;28;20029;-52
2020/12/24 22:19:19;;;;;;;0.00;0.00;;;5.00;99.90;;;;;;10482238;28;20388;-52
2020/12/24 22:24:40;;;;;;;1.55;0.00;;;4.90;99.90;;;;;;10478707;28;20028;-52
2020/12/24 22:30:01;;;;;;;0.43;0.10;;;5.00;99.90;;;;;;10480943;28;20508;-52
2020/12/24 22:35:22;;;;;;;0.05;0.00;;;5.00;99.90;;;;;;10483800;28;20039;-52
2020/12/24 22:40:43;;;;;;;0.00;0.00;;;5.10;99.90;;;;;;10450436;28;20053;-51
2020/12/24 22:46:04;;;;;;;0.00;0.00;;;5.00;99.90;;;;;;10476385;28;20037;-52
2020/12/24 22:51:26;;;;;;;0.32;0.00;;;5.00;99.90;;;;;;10487411;28;20174;-52
2020/12/24 22:56:47;;;;;;;0.00;0.00;;;4.90;99.90;;;;;;10487925;28;20032;-52
2020/12/24 23:02:08;;;;;;;1.10;0.00;;;4.90;99.90;;;;;;10488723;28;20071;-52
2020/12/24 23:07:36;;;;;;;0.00;0.00;;;4.90;99.90;;;;;;10463346;28;20102;-52
2020/12/24 23:12:58;;;;;;;0.00;0.00;;;5.00;99.90;;;;;;10457028;28;20048;-52
2020/12/24 23:18:18;;;;;;;0.00;0.00;;;4.90;99.90;;;;;;10444928;28;20538;-52
2020/12/24 23:23:39;;;;;;;0.10;0.00;;;4.80;99.90;;;;;;10483313;28;20448;-52
2020/12/24 23:29:00;;;;;;;0.00;0.00;;;4.70;99.90;;;;;;10486455;28;20025;-52
2020/12/24 23:34:21;;;;;;;0.00;0.00;;;4.60;99.90;;;;;;10485731;28;20090;-52
2020/12/24 23:39:42;;;;;;;0.08;0.00;;;4.50;99.90;;;;;;10445799;28;20102;-52
2020/12/24 23:45:08;;;;;;;0.00;0.00;;;4.50;99.90;;;;;;10483774;28;20734;-52
2020/12/24 23:50:29;;;;;;;0.38;0.10;;;4.40;99.90;;;;;;10445593;28;20544;-52
2020/12/24 23:55:50;;;;;;;0.00;0.00;;;4.40;99.90;;;;;;10444136;28;20562;-52
